createdAt,value
2019-01-04T00:00:41.794Z,74.23
2019-01-04T00:01:47.003Z,74.21
2019-01-04T00:02:51.981Z,74.22
2019-01-04T00:03:56.911Z,74.24
2019-01-04T00:05:01.823Z,74.24
2019-01-04T00:06:06.943Z,74.22
2019-01-04T00:07:12.464Z,74.23
2019-01-04T00:08:17.709Z,74.26
2019-01-04T00:09:22.594Z,74.28
2019-01-04T00:10:27.476Z,74.28
2019-01-04T00:11:32.441Z,74.32
2019-01-04T00:12:37.334Z,74.35
2019-01-04T00:13:42.317Z,74.36
2019-01-04T00:14:48.014Z,74.39
2019-01-04T00:15:52.894Z,74.39
2019-01-04T00:16:58.178Z,74.46
2019-01-04T00:18:03.050Z,74.50
2019-01-04T00:19:08.038Z,74.53
2019-01-04T00:20:12.991Z,74.57
2019-01-04T00:21:18.025Z,74.60
2019-01-04T00:22:22.914Z,74.58
2019-01-04T00:23:27.954Z,74.62
2019-01-04T00:24:32.859Z,74.66
2019-01-04T00:25:38.119Z,74.66
2019-01-04T00:26:43.023Z,74.68
2019-01-04T00:27:48.561Z,74.70
2019-01-04T00:28:53.861Z,74.74
2019-01-04T00:29:59.072Z,74.77
2019-01-04T00:31:04.308Z,74.82
2019-01-04T00:32:09.272Z,74.89
2019-01-04T00:33:14.475Z,74.88
2019-01-04T00:34:19.428Z,74.85
2019-01-04T00:35:24.662Z,74.87
2019-01-04T00:36:29.670Z,74.89
2019-01-04T00:37:34.862Z,74.87
2019-01-04T00:38:40.799Z,74.92
2019-01-04T00:39:46.344Z,74.91
2019-01-04T00:40:51.634Z,74.85
2019-01-04T00:41:56.644Z,74.85
2019-01-04T00:43:01.592Z,74.86
2019-01-04T00:44:06.564Z,74.91
2019-01-04T00:45:11.775Z,74.89
2019-01-04T00:46:16.752Z,74.94
2019-01-04T00:47:21.774Z,74.94
2019-01-04T00:48:26.760Z,74.97
2019-01-04T00:49:31.685Z,75.00
2019-01-04T00:50:36.723Z,75.04
2019-01-04T00:51:41.804Z,75.01
2019-01-04T00:52:46.765Z,74.91
2019-01-04T00:53:51.794Z,74.92
2019-01-04T00:55:01.351Z,74.92
2019-01-04T00:56:47.234Z,74.94
2019-01-04T00:58:00.235Z,74.95
2019-01-04T00:59:39.159Z,74.92
2019-01-04T01:01:14.122Z,74.93
2019-01-04T01:02:54.759Z,74.97
2019-01-04T01:04:37.979Z,74.96
2019-01-04T01:06:41.865Z,74.94
2019-01-04T01:08:14.098Z,74.97
2019-01-04T01:10:30.060Z,75.01
2019-01-04T01:12:06.080Z,75.00
2019-01-04T01:13:47.869Z,75.05
2019-01-04T01:15:42.869Z,75.13
2019-01-04T01:17:02.321Z,75.11
2019-01-04T01:19:03.198Z,75.14
2019-01-04T01:20:37.513Z,75.14
2019-01-04T01:22:24.924Z,75.14
2019-01-04T01:24:06.608Z,75.12
2019-01-04T01:26:10.436Z,75.08
2019-01-04T01:27:55.224Z,75.04
2019-01-04T01:29:43.214Z,75.05
2019-01-04T01:31:35.422Z,75.06
2019-01-04T01:32:50.343Z,75.19
2019-01-04T01:34:31.998Z,75.17
2019-01-04T01:36:02.950Z,75.06
2019-01-04T01:37:53.136Z,74.99
2019-01-04T01:39:46.379Z,75.01
2019-01-04T01:41:20.437Z,75.03
2019-01-04T01:43:01.318Z,75.15
2019-01-04T01:44:39.143Z,75.12
2019-01-04T01:46:20.951Z,75.04
2019-01-04T01:47:43.523Z,75.09
2019-01-04T01:49:34.079Z,74.99
2019-01-04T01:51:17.233Z,74.99
2019-01-04T01:52:26.498Z,75.02
2019-01-04T01:53:44.761Z,75.15
2019-01-04T01:54:49.663Z,75.24
2019-01-04T01:55:54.618Z,75.33
2019-01-04T01:56:59.512Z,75.40
2019-01-04T01:58:04.425Z,75.43
2019-01-04T01:59:09.328Z,75.51
2019-01-04T02:00:14.765Z,75.53
2019-01-04T02:01:19.768Z,75.45
2019-01-04T02:02:24.921Z,75.38
2019-01-04T02:03:29.814Z,75.33
2019-01-04T02:04:34.703Z,75.25
2019-01-04T02:05:39.681Z,75.24
2019-01-04T02:06:44.569Z,75.22
2019-01-04T02:07:49.450Z,75.20
2019-01-04T02:08:54.362Z,75.21
2019-01-04T02:09:59.333Z,75.19
2019-01-04T02:11:04.292Z,75.23
2019-01-04T02:12:09.318Z,75.28
2019-01-04T02:13:14.207Z,75.33
2019-01-04T02:14:19.670Z,75.38
2019-01-04T02:15:24.551Z,75.36
2019-01-04T02:16:29.560Z,75.35
2019-01-04T02:17:34.531Z,75.35
2019-01-04T02:18:39.419Z,75.36
2019-01-04T02:19:44.402Z,75.37
2019-01-04T02:20:49.362Z,75.25
2019-01-04T02:21:54.492Z,75.22
2019-01-04T02:22:59.395Z,75.12
2019-01-04T02:24:04.282Z,75.05
2019-01-04T02:25:09.436Z,74.93
2019-01-04T02:26:14.419Z,74.93
2019-01-04T02:27:19.304Z,74.95
2019-01-04T02:28:24.434Z,75.03
2019-01-04T02:29:29.317Z,75.00
2019-01-04T02:30:34.232Z,75.02
2019-01-04T02:31:39.129Z,75.04
2019-01-04T02:32:44.318Z,75.00
2019-01-04T02:33:49.448Z,75.07
2019-01-04T02:34:54.354Z,75.10
2019-01-04T02:35:59.255Z,75.11
2019-01-04T02:37:04.223Z,75.12
2019-01-04T02:38:09.120Z,75.16
2019-01-04T02:39:14.010Z,75.17
2019-01-04T02:40:18.921Z,75.15
2019-01-04T02:41:24.073Z,75.19
2019-01-04T02:42:28.994Z,75.22
2019-01-04T02:43:34.969Z,75.19
2019-01-04T02:44:39.843Z,75.12
2019-01-04T02:45:44.737Z,75.13
2019-01-04T02:46:49.649Z,75.17
2019-01-04T02:47:54.798Z,75.08
2019-01-04T02:48:59.711Z,74.93
2019-01-04T02:50:05.230Z,74.84
2019-01-04T02:51:10.122Z,74.87
2019-01-04T02:52:15.038Z,74.89
2019-01-04T02:53:19.926Z,74.81
2019-01-04T02:54:24.813Z,74.76
2019-01-04T02:55:29.724Z,74.80
2019-01-04T02:56:34.632Z,74.78
2019-01-04T02:57:39.794Z,74.75
2019-01-04T02:58:44.689Z,74.71
2019-01-04T02:59:49.628Z,74.76
2019-01-04T03:00:54.840Z,74.75
2019-01-04T03:01:59.736Z,74.77
2019-01-04T03:03:05.036Z,74.78
2019-01-04T03:04:09.929Z,74.79
2019-01-04T03:05:14.903Z,74.71
2019-01-04T03:06:19.967Z,74.58
2019-01-04T03:07:24.862Z,74.45
2019-01-04T03:08:30.041Z,74.45
2019-01-04T03:09:34.924Z,74.43
2019-01-04T03:10:40.056Z,74.37
2019-01-04T03:11:44.940Z,74.36
2019-01-04T03:12:49.826Z,74.41
2019-01-04T03:13:54.994Z,74.41
2019-01-04T03:15:00.247Z,74.46
2019-01-04T03:16:05.213Z,74.42
2019-01-04T03:17:10.166Z,74.38
2019-01-04T03:18:15.060Z,74.40
2019-01-04T03:19:20.049Z,74.47
2019-01-04T03:20:24.942Z,74.53
2019-01-04T03:21:29.835Z,74.56
2019-01-04T03:22:34.727Z,74.62
2019-01-04T03:23:39.939Z,74.68
2019-01-04T03:24:45.114Z,74.82
2019-01-04T03:25:50.080Z,74.93
2019-01-04T03:26:55.255Z,75.00
2019-01-04T03:28:00.388Z,75.09
2019-01-04T03:29:05.523Z,75.17
2019-01-04T03:30:10.614Z,75.21
2019-01-04T03:31:15.486Z,75.18
2019-01-04T03:32:20.374Z,75.15
2019-01-04T03:33:25.509Z,75.14
2019-01-04T03:34:30.405Z,75.09
2019-01-04T03:35:35.325Z,75.07
2019-01-04T03:36:40.214Z,75.09
2019-01-04T03:37:45.125Z,75.15
2019-01-04T03:38:50.028Z,75.26
2019-01-04T03:39:54.992Z,75.33
2019-01-04T03:41:00.132Z,75.49
2019-01-04T03:42:05.107Z,75.59
2019-01-04T03:43:10.323Z,75.64
2019-01-04T03:44:15.223Z,75.69
2019-01-04T03:45:20.200Z,75.75
2019-01-04T03:46:25.988Z,75.82
2019-01-04T03:47:30.890Z,75.86
2019-01-04T03:48:35.788Z,75.89
2019-01-04T03:49:40.679Z,75.98
2019-01-04T03:50:45.576Z,76.08
2019-01-04T03:51:50.488Z,76.08
2019-01-04T03:52:55.399Z,76.08
2019-01-04T03:54:00.512Z,76.12
2019-01-04T03:55:05.648Z,76.17
2019-01-04T03:56:10.845Z,76.20
2019-01-04T03:57:15.776Z,76.22
2019-01-04T03:58:20.678Z,76.20
2019-01-04T03:59:25.567Z,76.13
2019-01-04T04:00:30.534Z,76.08
2019-01-04T04:01:35.415Z,76.02
2019-01-04T04:02:40.836Z,76.02
2019-01-04T04:03:45.725Z,76.03
2019-01-04T04:04:50.896Z,76.08
2019-01-04T04:05:55.893Z,76.10
2019-01-04T04:07:01.060Z,76.09
2019-01-04T04:08:06.049Z,76.04
2019-01-04T04:09:11.014Z,76.04
2019-01-04T04:10:15.893Z,76.02
2019-01-04T04:11:20.865Z,76.02
2019-01-04T04:12:25.768Z,76.06
2019-01-04T04:13:30.673Z,76.02
2019-01-04T04:14:35.582Z,75.96
2019-01-04T04:15:40.492Z,75.96
2019-01-04T04:16:45.411Z,75.96
2019-01-04T04:17:50.556Z,76.02
2019-01-04T04:18:55.461Z,75.98
2019-01-04T04:20:00.346Z,75.96
2019-01-04T04:21:05.242Z,75.93
2019-01-04T04:22:11.411Z,75.88
2019-01-04T04:23:16.304Z,75.89
2019-01-04T04:24:21.213Z,75.94
2019-01-04T04:25:26.124Z,75.99
2019-01-04T04:26:31.289Z,75.96
2019-01-04T04:27:36.450Z,75.93
2019-01-04T04:28:41.363Z,75.91
2019-01-04T04:29:46.510Z,75.83
2019-01-04T04:30:51.677Z,75.71
2019-01-04T04:31:56.818Z,75.68
2019-01-04T04:33:01.968Z,75.66
2019-01-04T04:34:06.877Z,75.65
2019-01-04T04:35:11.787Z,75.65
2019-01-04T04:36:16.702Z,75.63
2019-01-04T04:37:21.603Z,75.65
2019-01-04T04:38:26.496Z,75.67
2019-01-04T04:39:31.396Z,75.64
2019-01-04T04:40:36.301Z,75.61
2019-01-04T04:41:41.210Z,75.67
2019-01-04T04:42:46.111Z,75.67
2019-01-04T04:43:51.070Z,75.74
2019-01-04T04:44:56.210Z,75.80
2019-01-04T04:46:01.203Z,75.89
2019-01-04T04:47:06.090Z,75.94
2019-01-04T04:48:10.985Z,75.97
2019-01-04T04:49:15.978Z,75.97
2019-01-04T04:50:20.901Z,75.92
2019-01-04T04:51:25.800Z,75.95
2019-01-04T04:52:30.708Z,75.91
2019-01-04T04:53:36.025Z,75.96
2019-01-04T04:54:40.973Z,75.89
2019-01-04T04:55:45.887Z,75.88
2019-01-04T04:56:50.795Z,75.96
2019-01-04T04:57:55.686Z,75.93
2019-01-04T04:59:00.578Z,75.81
2019-01-04T05:00:06.251Z,75.81
2019-01-04T05:01:11.137Z,75.75
2019-01-04T05:02:16.044Z,75.78
2019-01-04T05:03:20.939Z,75.70
2019-01-04T05:04:25.918Z,75.67
2019-01-04T05:05:30.805Z,75.67
2019-01-04T05:06:35.711Z,75.65
2019-01-04T05:07:40.610Z,75.60
2019-01-04T05:08:45.494Z,75.61
2019-01-04T05:09:50.393Z,75.59
2019-01-04T05:10:55.324Z,75.63
2019-01-04T05:12:00.233Z,75.66
2019-01-04T05:13:05.144Z,75.65
2019-01-04T05:14:10.027Z,75.68
2019-01-04T05:15:14.930Z,75.76
2019-01-04T05:16:19.821Z,75.86
2019-01-04T05:17:24.719Z,75.79
2019-01-04T05:18:29.623Z,75.78
2019-01-04T05:19:34.525Z,75.82
2019-01-04T05:20:39.424Z,75.89
2019-01-04T05:21:44.312Z,75.94
2019-01-04T05:22:49.468Z,75.90
2019-01-04T05:23:54.629Z,75.88
2019-01-04T05:24:59.542Z,75.89
2019-01-04T05:26:04.443Z,75.84
2019-01-04T05:27:09.400Z,75.74
2019-01-04T05:28:14.366Z,75.65
2019-01-04T05:29:19.272Z,75.53
2019-01-04T05:30:24.411Z,75.59
2019-01-04T05:31:29.292Z,75.55
2019-01-04T05:32:34.181Z,75.55
2019-01-04T05:33:39.086Z,75.53
2019-01-04T05:34:44.238Z,75.52
2019-01-04T05:35:49.457Z,75.44
2019-01-04T05:36:54.346Z,75.45
2019-01-04T05:37:59.311Z,75.41
2019-01-04T05:39:05.605Z,75.41
2019-01-04T05:40:10.590Z,75.39
2019-01-04T05:41:15.480Z,75.36
2019-01-04T05:42:20.630Z,75.30
2019-01-04T05:43:25.547Z,75.21
2019-01-04T05:44:30.437Z,75.21
2019-01-04T05:45:35.423Z,75.15
2019-01-04T05:46:40.314Z,75.15
2019-01-04T05:47:45.718Z,75.17
2019-01-04T05:48:50.614Z,75.18
2019-01-04T05:49:55.813Z,75.24
2019-01-04T05:51:00.730Z,75.23
2019-01-04T05:52:11.061Z,75.28
2019-01-04T05:53:16.962Z,75.29
2019-01-04T05:54:21.848Z,75.27
2019-01-04T05:55:26.740Z,75.34
2019-01-04T05:56:31.894Z,75.39
2019-01-04T05:57:36.798Z,75.47
2019-01-04T05:58:41.682Z,75.59
2019-01-04T05:59:46.865Z,75.67
2019-01-04T06:00:51.763Z,75.70
2019-01-04T06:01:56.743Z,75.73
2019-01-04T06:03:01.634Z,75.72
2019-01-04T06:04:06.767Z,75.82
2019-01-04T06:05:11.668Z,75.82
2019-01-04T06:06:16.580Z,75.90
2019-01-04T06:07:21.725Z,75.92
2019-01-04T06:08:26.624Z,75.93
2019-01-04T06:09:31.528Z,75.90
2019-01-04T06:10:36.567Z,75.81
2019-01-04T06:11:41.455Z,75.78
2019-01-04T06:12:46.366Z,75.80
2019-01-04T06:13:51.278Z,75.78
2019-01-04T06:14:56.178Z,75.67
2019-01-04T06:16:01.369Z,75.64
2019-01-04T06:17:06.252Z,75.64
2019-01-04T06:18:11.175Z,75.66
2019-01-04T06:19:16.058Z,75.69
2019-01-04T06:20:20.960Z,75.74
2019-01-04T06:21:25.853Z,75.73
2019-01-04T06:22:30.745Z,75.74
2019-01-04T06:23:35.654Z,75.72
2019-01-04T06:24:40.860Z,75.67
2019-01-04T06:25:45.752Z,75.62
2019-01-04T06:26:50.639Z,75.63
2019-01-04T06:27:55.561Z,75.63
2019-01-04T06:29:00.474Z,75.73
2019-01-04T06:30:06.001Z,75.73
2019-01-04T06:31:10.932Z,75.71
2019-01-04T06:32:16.117Z,75.67
2019-01-04T06:33:21.256Z,75.55
2019-01-04T06:34:26.176Z,75.53
2019-01-04T06:35:31.133Z,75.49
2019-01-04T06:36:36.511Z,75.45
2019-01-04T06:37:41.395Z,75.47
2019-01-04T06:38:46.390Z,75.46
2019-01-04T06:39:51.295Z,75.48
2019-01-04T06:40:56.273Z,75.44
2019-01-04T06:42:01.156Z,75.45
2019-01-04T06:43:06.067Z,75.44
2019-01-04T06:44:10.948Z,75.34
2019-01-04T06:45:16.089Z,75.27
2019-01-04T06:46:20.981Z,75.30
2019-01-04T06:47:25.881Z,75.29
2019-01-04T06:48:30.801Z,75.22
2019-01-04T06:49:35.696Z,75.23
2019-01-04T06:50:40.869Z,75.27
2019-01-04T06:51:45.866Z,75.22
2019-01-04T06:52:50.762Z,75.25
2019-01-04T06:53:55.687Z,75.27
2019-01-04T06:55:50.300Z,75.22
2019-01-04T06:56:55.208Z,75.21
2019-01-04T06:58:00.181Z,75.10
2019-01-04T06:59:05.162Z,75.15
2019-01-04T07:00:10.225Z,75.19
2019-01-04T07:01:15.205Z,75.24
2019-01-04T07:02:20.332Z,75.25
2019-01-04T07:03:25.219Z,75.20
2019-01-04T07:04:30.150Z,75.21
2019-01-04T07:05:35.049Z,75.21
2019-01-04T07:06:39.948Z,75.14
2019-01-04T07:07:44.845Z,75.14
2019-01-04T07:08:49.986Z,75.20
2019-01-04T07:09:54.976Z,75.25
2019-01-04T07:10:59.864Z,75.21
2019-01-04T07:12:04.884Z,75.25
2019-01-04T07:13:09.851Z,75.21
2019-01-04T07:14:14.746Z,75.25
2019-01-04T07:15:19.946Z,75.25
2019-01-04T07:16:24.924Z,75.32
2019-01-04T07:17:30.098Z,75.29
2019-01-04T07:18:35.190Z,75.27
2019-01-04T07:19:40.128Z,75.06
2019-01-04T07:20:45.108Z,75.09
2019-01-04T07:21:50.008Z,75.03
2019-01-04T07:22:54.903Z,75.05
2019-01-04T07:23:59.804Z,75.06
2019-01-04T07:25:04.913Z,75.05
2019-01-04T07:26:09.805Z,75.03
2019-01-04T07:27:14.775Z,74.94
2019-01-04T07:28:19.903Z,75.01
2019-01-04T07:29:24.969Z,74.96
2019-01-04T07:30:29.942Z,74.97
2019-01-04T07:31:34.851Z,74.90
2019-01-04T07:32:39.989Z,74.89
2019-01-04T07:33:45.074Z,74.91
2019-01-04T07:34:49.960Z,74.89
2019-01-04T07:35:54.902Z,74.85
2019-01-04T07:37:00.149Z,74.95
2019-01-04T07:38:05.110Z,74.96
2019-01-04T07:39:10.022Z,75.03
2019-01-04T07:40:14.909Z,75.09
2019-01-04T07:41:19.798Z,75.21
2019-01-04T07:42:24.692Z,75.24
2019-01-04T07:43:29.833Z,75.28
2019-01-04T07:44:34.773Z,75.30
2019-01-04T07:45:40.031Z,75.35
2019-01-04T07:46:44.923Z,75.44
2019-01-04T07:47:50.173Z,75.47
2019-01-04T07:48:55.068Z,75.47
2019-01-04T07:50:00.967Z,75.61
2019-01-04T07:51:05.858Z,75.75
2019-01-04T07:52:10.753Z,75.77
2019-01-04T07:53:15.880Z,75.71
2019-01-04T07:54:21.028Z,75.66
2019-01-04T07:55:26.382Z,75.73
2019-01-04T07:56:31.273Z,75.75
2019-01-04T07:57:37.121Z,75.82
2019-01-04T07:58:42.260Z,75.87
2019-01-04T07:59:50.041Z,75.92
2019-01-04T08:00:54.945Z,75.94
2019-01-04T08:01:59.848Z,75.94
2019-01-04T08:03:18.746Z,75.96
2019-01-04T08:04:23.630Z,75.99
2019-01-04T08:05:29.300Z,76.05
2019-01-04T08:06:34.208Z,76.10
2019-01-04T08:07:39.115Z,76.14
2019-01-04T08:08:44.243Z,76.20
2019-01-04T08:09:49.150Z,76.27
2019-01-04T08:10:54.107Z,76.32
2019-01-04T08:11:59.019Z,76.37
2019-01-04T08:13:03.982Z,76.38
2019-01-04T08:14:08.865Z,76.48
2019-01-04T08:15:13.828Z,76.53
2019-01-04T08:16:18.760Z,76.61
2019-01-04T08:17:23.741Z,76.69
2019-01-04T08:18:28.628Z,76.81
2019-01-04T08:19:33.510Z,76.84
2019-01-04T08:20:38.410Z,76.87
2019-01-04T08:21:43.292Z,76.90
2019-01-04T08:22:48.516Z,76.95
2019-01-04T08:23:53.664Z,76.90
2019-01-04T08:24:58.575Z,76.93
2019-01-04T08:26:03.544Z,76.94
2019-01-04T08:27:08.429Z,77.04
2019-01-04T08:28:13.578Z,77.14
2019-01-04T08:29:18.481Z,77.28
2019-01-04T08:30:23.945Z,77.37
2019-01-04T08:31:28.838Z,77.39
2019-01-04T08:32:33.760Z,77.54
2019-01-04T08:33:38.802Z,77.69
2019-01-04T08:34:43.932Z,77.77
2019-01-04T08:35:48.848Z,77.82
2019-01-04T08:36:53.736Z,77.83
2019-01-04T08:37:58.639Z,77.85
2019-01-04T08:39:05.094Z,77.82
2019-01-04T08:40:11.505Z,77.70
2019-01-04T08:41:16.391Z,77.72
2019-01-04T08:42:21.529Z,77.77
2019-01-04T08:43:26.455Z,77.78
2019-01-04T08:44:31.363Z,77.79
2019-01-04T08:45:36.274Z,77.87
2019-01-04T08:46:41.144Z,77.95
2019-01-04T08:47:46.055Z,78.09
2019-01-04T08:48:51.208Z,78.12
2019-01-04T08:49:56.369Z,78.04
2019-01-04T08:51:01.342Z,78.02
2019-01-04T08:52:06.302Z,77.99
2019-01-04T08:53:11.281Z,77.94
2019-01-04T08:54:16.266Z,78.00
2019-01-04T08:55:26.522Z,78.02
2019-01-04T08:56:33.836Z,78.06
2019-01-04T08:57:38.746Z,78.06
2019-01-04T08:58:43.711Z,78.08
2019-01-04T08:59:49.599Z,78.01
2019-01-04T09:00:54.534Z,78.08
2019-01-04T09:01:59.463Z,78.13
2019-01-04T09:03:04.432Z,78.10
2019-01-04T09:04:09.402Z,78.10
2019-01-04T09:05:14.308Z,78.15
2019-01-04T09:06:19.496Z,78.13
2019-01-04T09:07:24.730Z,78.17
2019-01-04T09:08:29.630Z,78.20
2019-01-04T09:09:34.775Z,78.27
2019-01-04T09:10:39.767Z,78.25
2019-01-04T09:11:44.943Z,78.21
2019-01-04T09:12:49.915Z,78.16
2019-01-04T09:13:55.215Z,78.17
2019-01-04T09:15:00.170Z,78.17
2019-01-04T09:16:05.320Z,78.15
2019-01-04T09:17:10.308Z,78.17
2019-01-04T09:18:15.336Z,78.05
2019-01-04T09:19:20.611Z,78.01
2019-01-04T09:20:26.085Z,78.00
2019-01-04T09:21:31.032Z,78.08
2019-01-04T09:22:36.104Z,78.05
2019-01-04T09:23:41.071Z,78.04
2019-01-04T09:24:45.967Z,78.00
2019-01-04T09:25:51.164Z,78.00
2019-01-04T09:26:56.143Z,78.00
2019-01-04T09:28:01.043Z,78.01
2019-01-04T09:29:06.093Z,78.03
2019-01-04T09:30:13.204Z,78.03
2019-01-04T09:31:18.362Z,77.95
2019-01-04T09:32:23.278Z,78.02
2019-01-04T09:33:28.208Z,78.06
2019-01-04T09:34:33.112Z,78.19
2019-01-04T09:35:38.000Z,78.36
2019-01-04T09:36:43.196Z,78.46
2019-01-04T09:37:48.401Z,78.47
2019-01-04T09:38:53.507Z,78.47
2019-01-04T09:39:58.400Z,78.46
2019-01-04T09:41:28.226Z,78.44
2019-01-04T09:42:33.111Z,78.40
2019-01-04T09:43:38.036Z,78.26
2019-01-04T09:44:43.889Z,78.17
2019-01-04T09:45:48.779Z,78.22
2019-01-04T09:46:53.664Z,78.20
2019-01-04T09:47:58.551Z,78.25
2019-01-04T09:49:03.600Z,78.26
2019-01-04T09:50:09.695Z,78.25
2019-01-04T09:51:14.577Z,78.28
2019-01-04T09:52:19.685Z,78.28
2019-01-04T09:53:24.572Z,78.31
2019-01-04T09:54:29.709Z,78.27
2019-01-04T09:55:34.918Z,78.28
2019-01-04T09:56:39.877Z,78.20
2019-01-04T09:57:44.820Z,78.17
2019-01-04T09:58:49.953Z,78.16
2019-01-04T09:59:54.872Z,78.18
2019-01-04T10:00:59.968Z,78.16
2019-01-04T10:02:05.836Z,78.06
2019-01-04T10:03:10.728Z,78.01
2019-01-04T10:04:15.755Z,78.00
2019-01-04T10:05:20.967Z,78.00
2019-01-04T10:06:26.133Z,77.94
2019-01-04T10:07:31.023Z,77.95
2019-01-04T10:08:36.066Z,77.85
2019-01-04T10:09:41.720Z,77.85
2019-01-04T10:10:46.840Z,77.83
2019-01-04T10:11:51.743Z,77.89
2019-01-04T10:12:56.903Z,77.85
2019-01-04T10:14:01.887Z,77.82
2019-01-04T10:15:08.611Z,77.81
2019-01-04T10:16:13.495Z,77.81
2019-01-04T10:17:18.660Z,77.82
2019-01-04T10:18:23.614Z,77.79
2019-01-04T10:19:28.460Z,77.80
2019-01-04T10:20:33.353Z,77.82
2019-01-04T10:21:38.257Z,77.82
2019-01-04T10:22:43.155Z,77.72
2019-01-04T10:23:48.051Z,77.73
2019-01-04T10:24:53.275Z,77.84
2019-01-04T10:25:58.196Z,77.84
2019-01-04T10:27:03.168Z,77.88
2019-01-04T10:28:08.086Z,77.91
2019-01-04T10:29:13.247Z,77.88
2019-01-04T10:30:25.007Z,77.91
2019-01-04T10:31:29.888Z,77.88
2019-01-04T10:32:34.849Z,77.79
2019-01-04T10:33:39.756Z,77.76
2019-01-04T10:34:44.649Z,77.63
2019-01-04T10:35:49.571Z,77.58
2019-01-04T10:36:54.491Z,77.58
2019-01-04T10:37:59.386Z,77.56
2019-01-04T10:39:06.944Z,77.51
2019-01-04T10:40:12.099Z,77.36
2019-01-04T10:41:16.995Z,77.34
2019-01-04T10:42:21.908Z,77.34
2019-01-04T10:43:26.813Z,77.30
2019-01-04T10:44:31.991Z,77.32
2019-01-04T10:45:37.201Z,77.30
2019-01-04T10:46:42.220Z,77.23
2019-01-04T10:47:47.175Z,77.18
2019-01-04T10:48:52.495Z,77.11
2019-01-04T10:49:57.460Z,77.12
2019-01-04T10:51:02.372Z,77.08
2019-01-04T10:52:07.335Z,77.04
2019-01-04T10:53:12.235Z,76.92
2019-01-04T10:54:17.204Z,76.82
2019-01-04T10:55:22.271Z,76.81
2019-01-04T10:56:27.178Z,76.75
2019-01-04T10:57:32.380Z,76.79
2019-01-04T10:58:37.276Z,76.76
2019-01-04T10:59:42.168Z,76.69
2019-01-04T11:00:52.183Z,76.63
2019-01-04T11:01:57.833Z,76.66
2019-01-04T11:03:07.683Z,76.65
2019-01-04T11:04:13.649Z,76.46
2019-01-04T11:05:18.545Z,76.48
2019-01-04T11:06:23.527Z,76.52
2019-01-04T11:07:28.433Z,76.52
2019-01-04T11:08:33.411Z,76.51
2019-01-04T11:09:38.383Z,76.59
2019-01-04T11:10:43.360Z,76.48
2019-01-04T11:11:48.607Z,76.54
2019-01-04T11:12:53.504Z,76.52
2019-01-04T11:13:58.416Z,76.53
2019-01-04T11:15:03.442Z,76.52
2019-01-04T11:16:08.330Z,76.44
2019-01-04T11:17:13.286Z,76.48
2019-01-04T11:18:18.184Z,76.51
2019-01-04T11:19:23.063Z,76.46
2019-01-04T11:20:44.866Z,76.42
2019-01-04T11:21:49.837Z,76.37
2019-01-04T11:22:58.473Z,76.42
2019-01-04T11:24:53.786Z,76.39
2019-01-04T11:26:23.057Z,76.40
2019-01-04T11:27:37.296Z,76.21
2019-01-04T11:28:57.769Z,76.15
2019-01-04T11:30:27.962Z,76.14
2019-01-04T11:31:45.059Z,75.85
2019-01-04T11:33:09.999Z,76.06
2019-01-04T11:34:45.770Z,76.16
2019-01-04T11:36:23.731Z,76.08
2019-01-04T11:37:44.031Z,75.81
2019-01-04T11:39:13.844Z,75.84
2019-01-04T11:40:54.887Z,76.15
2019-01-04T11:42:41.804Z,76.22
2019-01-04T11:44:35.282Z,76.23
2019-01-04T11:46:05.448Z,76.44
2019-01-04T11:47:50.193Z,76.55
2019-01-04T11:49:10.250Z,76.59
2019-01-04T11:50:37.679Z,76.56
2019-01-04T11:52:03.823Z,76.71
2019-01-04T11:53:15.989Z,76.79
2019-01-04T11:54:27.409Z,76.77
2019-01-04T11:55:32.383Z,76.70
2019-01-04T11:56:37.535Z,76.76
2019-01-04T11:57:42.679Z,76.70
2019-01-04T11:58:47.814Z,76.52
2019-01-04T11:59:52.927Z,76.48
2019-01-04T12:00:58.138Z,76.56
2019-01-04T12:02:03.230Z,76.64
2019-01-04T12:03:08.360Z,76.64
2019-01-04T12:04:13.256Z,76.58
2019-01-04T12:05:18.231Z,76.61
2019-01-04T12:06:24.355Z,76.69
2019-01-04T12:07:29.328Z,76.76
2019-01-04T12:08:34.245Z,76.68
2019-01-04T12:09:39.123Z,76.65
2019-01-04T12:10:44.028Z,76.77
2019-01-04T12:11:48.959Z,76.85
2019-01-04T12:12:53.856Z,76.84
2019-01-04T12:13:59.833Z,76.84
2019-01-04T12:15:05.064Z,76.75
2019-01-04T12:16:09.989Z,76.81
2019-01-04T12:17:15.194Z,76.79
2019-01-04T12:18:20.156Z,76.75
2019-01-04T12:19:25.635Z,76.82
2019-01-04T12:20:30.534Z,76.81
2019-01-04T12:21:35.435Z,76.79
2019-01-04T12:22:40.580Z,76.72
2019-01-04T12:23:45.573Z,76.70
2019-01-04T12:24:50.548Z,76.64
2019-01-04T12:25:55.446Z,76.54
2019-01-04T12:27:00.414Z,76.58
2019-01-04T12:28:05.321Z,76.56
2019-01-04T12:29:10.747Z,76.43
2019-01-04T12:30:15.655Z,76.60
2019-01-04T12:31:20.629Z,76.48
2019-01-04T12:32:25.596Z,76.53
2019-01-04T12:33:30.889Z,76.57
2019-01-04T12:34:35.776Z,76.56
2019-01-04T12:35:40.683Z,76.57
2019-01-04T12:36:45.603Z,76.43
2019-01-04T12:37:50.514Z,76.54
2019-01-04T12:38:55.409Z,76.65
2019-01-04T12:40:00.593Z,76.67
2019-01-04T12:41:05.820Z,76.69
2019-01-04T12:42:10.794Z,76.78
2019-01-04T12:43:15.680Z,76.76
2019-01-04T12:44:20.569Z,76.79
2019-01-04T12:45:25.463Z,76.84
2019-01-04T12:46:30.439Z,76.86
2019-01-04T12:47:35.352Z,76.87
2019-01-04T12:48:40.279Z,76.95
2019-01-04T12:49:45.257Z,76.98
2019-01-04T12:50:50.156Z,76.97
2019-01-04T12:51:55.077Z,76.84
2019-01-04T12:53:00.038Z,76.91
2019-01-04T12:54:05.072Z,76.92
2019-01-04T12:55:10.378Z,77.05
2019-01-04T12:56:15.270Z,77.10
2019-01-04T12:57:20.202Z,77.12
2019-01-04T12:58:25.349Z,77.14
2019-01-04T12:59:30.235Z,77.16
2019-01-04T13:00:35.274Z,77.25
2019-01-04T13:01:40.255Z,77.34
2019-01-04T13:02:45.180Z,77.31
2019-01-04T13:03:50.093Z,77.35
2019-01-04T13:04:55.151Z,77.33
2019-01-04T13:06:00.039Z,77.32
2019-01-04T13:07:04.932Z,77.32
2019-01-04T13:08:10.001Z,77.29
2019-01-04T13:09:15.811Z,77.32
2019-01-04T13:10:20.707Z,77.33
2019-01-04T13:11:25.687Z,77.28
2019-01-04T13:12:30.892Z,77.19
2019-01-04T13:13:36.047Z,77.24
2019-01-04T13:14:41.007Z,77.22
2019-01-04T13:15:46.135Z,77.19
2019-01-04T13:16:51.034Z,77.21
2019-01-04T13:17:56.179Z,77.30
2019-01-04T13:19:01.107Z,77.37
2019-01-04T13:20:06.224Z,77.35
2019-01-04T13:21:11.120Z,77.38
2019-01-04T13:22:16.332Z,77.45
2019-01-04T13:23:21.229Z,77.51
2019-01-04T13:24:26.160Z,77.62
2019-01-04T13:25:31.309Z,77.71
2019-01-04T13:26:36.229Z,77.68
2019-01-04T13:27:41.120Z,77.71
2019-01-04T13:28:46.105Z,77.72
2019-01-04T13:29:51.003Z,77.71
2019-01-04T13:30:55.897Z,77.70
2019-01-04T13:32:00.819Z,77.75
2019-01-04T13:33:05.822Z,77.65
2019-01-04T13:34:11.112Z,77.66
2019-01-04T13:35:16.061Z,77.66
2019-01-04T13:36:20.948Z,77.63
2019-01-04T13:37:25.874Z,77.70
2019-01-04T13:38:30.896Z,77.72
2019-01-04T13:39:35.785Z,77.78
2019-01-04T13:40:40.772Z,77.76
2019-01-04T13:41:46.145Z,77.80
2019-01-04T13:42:51.138Z,77.72
2019-01-04T13:43:56.105Z,77.69
2019-01-04T13:45:01.091Z,77.71
2019-01-04T13:46:06.092Z,77.77
2019-01-04T13:47:10.983Z,77.83
2019-01-04T13:48:15.948Z,77.86
2019-01-04T13:49:20.846Z,77.84
2019-01-04T13:50:26.052Z,77.83
2019-01-04T13:51:30.961Z,77.88
2019-01-04T13:52:35.858Z,77.90
2019-01-04T13:53:40.743Z,77.99
2019-01-04T13:54:45.636Z,78.14
2019-01-04T13:55:50.833Z,78.22
2019-01-04T13:56:55.738Z,78.20
2019-01-04T13:58:00.668Z,78.20
2019-01-04T13:59:05.811Z,78.12
2019-01-04T14:00:11.091Z,78.04
2019-01-04T14:01:15.995Z,77.98
2019-01-04T14:02:20.904Z,78.03
2019-01-04T14:03:25.803Z,78.04
2019-01-04T14:04:30.697Z,78.15
2019-01-04T14:05:35.693Z,78.21
2019-01-04T14:06:40.581Z,78.23
2019-01-04T14:07:45.480Z,78.14
2019-01-04T14:08:50.621Z,78.07
2019-01-04T14:09:55.535Z,78.11
2019-01-04T14:11:00.682Z,78.09
2019-01-04T14:12:06.710Z,78.09
2019-01-04T14:13:13.257Z,78.21
2019-01-04T14:14:18.208Z,78.33
2019-01-04T14:15:23.242Z,78.44
2019-01-04T14:16:28.271Z,78.48
2019-01-04T14:17:33.173Z,78.37
2019-01-04T14:18:38.105Z,78.32
2019-01-04T14:19:43.043Z,78.35
2019-01-04T14:20:47.969Z,78.39
2019-01-04T14:21:52.883Z,78.43
2019-01-04T14:22:58.029Z,78.47
2019-01-04T14:24:03.009Z,78.59
2019-01-04T14:25:08.990Z,78.65
2019-01-04T14:26:13.952Z,78.71
2019-01-04T14:27:18.904Z,78.63
2019-01-04T14:28:23.807Z,78.52
2019-01-04T14:29:28.842Z,78.56